Amity, Georgia
Current Conditions -  °F | °C
As of 5:35 AM on Sunday 21 Dec 2014 (Local Time) from KHQU Reporting Station
Overcast Overcast  
Wind Chill:   Ceiling: 700
Heat Index:   Visibility: 4mi
Dew Point:   Wind: 3mph
Humidity: 99%   Direction: 30°NNE
Pressure: 30.26"   Gusts: NA
Location:  33.7816°N, 82.4511°W
Report Text: KHQU 211035Z AUTO 03003KT 4SM OVC007 09/09 A3026 RMK AO1 T00900088
Loading
Personal Weather Stations






























Interactive Weather Map New forecast layout! Learn more

10-Day Weather Forecast

Advertisements
Track Severe Weather on mobile